sensor_id;sensor_type;location;lat;lon;timestamp;P1;durP1;ratioP1;P2;durP2;ratioP2
82479;SDS011;72105;46.112;12.902;2024-01-06T00:00:49;2.92;;;1.30;;
82479;SDS011;72105;46.112;12.902;2024-01-06T00:03:15;4.03;;;1.80;;
82479;SDS011;72105;46.112;12.902;2024-01-06T00:05:41;3.60;;;2.03;;
82479;SDS011;72105;46.112;12.902;2024-01-06T00:08:07;4.50;;;1.63;;
82479;SDS011;72105;46.112;12.902;2024-01-06T00:10:33;3.05;;;2.05;;
82479;SDS011;72105;46.112;12.902;2024-01-06T00:12:59;2.97;;;1.52;;
82479;SDS011;72105;46.112;12.902;2024-01-06T00:15:25;1.55;;;1.30;;
82479;SDS011;72105;46.112;12.902;2024-01-06T00:17:51;4.30;;;1.25;;
82479;SDS011;72105;46.112;12.902;2024-01-06T00:20:18;1.55;;;1.45;;
82479;SDS011;72105;46.112;12.902;2024-01-06T00:22:44;1.55;;;1.00;;
82479;SDS011;72105;46.112;12.902;2024-01-06T00:25:10;2.58;;;1.38;;
82479;SDS011;72105;46.112;12.902;2024-01-06T00:27:36;3.95;;;1.73;;
82479;SDS011;72105;46.112;12.902;2024-01-06T00:30:02;3.25;;;2.05;;
82479;SDS011;72105;46.112;12.902;2024-01-06T00:32:28;2.08;;;1.70;;
82479;SDS011;72105;46.112;12.902;2024-01-06T00:34:55;3.05;;;2.13;;
82479;SDS011;72105;46.112;12.902;2024-01-06T00:37:21;4.85;;;3.20;;
82479;SDS011;72105;46.112;12.902;2024-01-06T00:39:47;5.85;;;3.47;;
82479;SDS011;72105;46.112;12.902;2024-01-06T00:42:13;4.82;;;3.35;;
82479;SDS011;72105;46.112;12.902;2024-01-06T00:44:39;5.60;;;3.28;;
82479;SDS011;72105;46.112;12.902;2024-01-06T00:47:05;3.88;;;2.60;;
82479;SDS011;72105;46.112;12.902;2024-01-06T00:49:31;2.55;;;1.70;;
82479;SDS011;72105;46.112;12.902;2024-01-06T00:51:57;2.60;;;1.48;;
82479;SDS011;72105;46.112;12.902;2024-01-06T00:54:23;2.35;;;1.58;;
82479;SDS011;72105;46.112;12.902;2024-01-06T00:56:49;1.98;;;0.98;;
82479;SDS011;72105;46.112;12.902;2024-01-06T00:59:15;2.95;;;1.30;;
82479;SDS011;72105;46.112;12.902;2024-01-06T01:01:42;2.28;;;1.30;;
82479;SDS011;72105;46.112;12.902;2024-01-06T01:04:08;1.60;;;1.38;;
82479;SDS011;72105;46.112;12.902;2024-01-06T01:06:34;2.65;;;1.13;;
82479;SDS011;72105;46.112;12.902;2024-01-06T01:09:02;1.15;;;0.93;;
82479;SDS011;72105;46.112;12.902;2024-01-06T01:11:29;2.22;;;1.38;;
82479;SDS011;72105;46.112;12.902;2024-01-06T01:13:55;1.92;;;1.58;;
82479;SDS011;72105;46.112;12.902;2024-01-06T01:16:21;2.22;;;1.50;;
82479;SDS011;72105;46.112;12.902;2024-01-06T01:18:48;2.58;;;1.48;;
82479;SDS011;72105;46.112;12.902;2024-01-06T01:21:14;1.75;;;1.25;;
82479;SDS011;72105;46.112;12.902;2024-01-06T01:23:40;1.55;;;0.98;;
82479;SDS011;72105;46.112;12.902;2024-01-06T01:26:12;0.98;;;0.65;;
82479;SDS011;72105;46.112;12.902;2024-01-06T01:28:38;0.77;;;0.77;;
82479;SDS011;72105;46.112;12.902;2024-01-06T01:31:04;0.77;;;0.77;;
82479;SDS011;72105;46.112;12.902;2024-01-06T01:33:34;1.02;;;0.90;;
82479;SDS011;72105;46.112;12.902;2024-01-06T01:36:00;2.83;;;0.80;;
82479;SDS011;72105;46.112;12.902;2024-01-06T01:38:26;1.63;;;0.70;;
82479;SDS011;72105;46.112;12.902;2024-01-06T01:40:52;0.80;;;0.60;;
82479;SDS011;72105;46.112;12.902;2024-01-06T01:43:19;2.67;;;1.00;;
82479;SDS011;72105;46.112;12.902;2024-01-06T01:45:47;1.70;;;0.60;;
82479;SDS011;72105;46.112;12.902;2024-01-06T01:48:14;1.13;;;0.65;;
82479;SDS011;72105;46.112;12.902;2024-01-06T01:50:40;0.55;;;0.45;;
82479;SDS011;72105;46.112;12.902;2024-01-06T01:53:06;0.90;;;0.80;;
82479;SDS011;72105;46.112;12.902;2024-01-06T01:55:32;1.40;;;0.50;;
82479;SDS011;72105;46.112;12.902;2024-01-06T01:58:01;0.93;;;0.68;;
82479;SDS011;72105;46.112;12.902;2024-01-06T02:00:27;1.40;;;0.80;;
82479;SDS011;72105;46.112;12.902;2024-01-06T02:02:53;0.70;;;0.50;;
82479;SDS011;72105;46.112;12.902;2024-01-06T02:05:19;0.88;;;0.60;;
82479;SDS011;72105;46.112;12.902;2024-01-06T02:07:46;0.65;;;0.50;;
82479;SDS011;72105;46.112;12.902;2024-01-06T02:10:12;0.73;;;0.50;;
82479;SDS011;72105;46.112;12.902;2024-01-06T02:12:39;0.63;;;0.50;;
82479;SDS011;72105;46.112;12.902;2024-01-06T02:15:05;0.40;;;0.40;;
82479;SDS011;72105;46.112;12.902;2024-01-06T02:17:31;1.65;;;0.60;;
82479;SDS011;72105;46.112;12.902;2024-01-06T02:19:57;0.82;;;0.70;;
82479;SDS011;72105;46.112;12.902;2024-01-06T02:22:23;0.32;;;0.32;;
82479;SDS011;72105;46.112;12.902;2024-01-06T02:24:49;0.70;;;0.50;;
82479;SDS011;72105;46.112;12.902;2024-01-06T02:27:15;0.30;;;0.30;;
82479;SDS011;72105;46.112;12.902;2024-01-06T02:29:41;0.80;;;0.40;;
82479;SDS011;72105;46.112;12.902;2024-01-06T02:32:07;0.40;;;0.40;;
82479;SDS011;72105;46.112;12.902;2024-01-06T02:34:33;0.35;;;0.35;;
82479;SDS011;72105;46.112;12.902;2024-01-06T02:37:00;1.30;;;0.45;;
82479;SDS011;72105;46.112;12.902;2024-01-06T02:39:26;0.32;;;0.30;;
82479;SDS011;72105;46.112;12.902;2024-01-06T02:41:52;2.55;;;0.47;;
82479;SDS011;72105;46.112;12.902;2024-01-06T02:44:18;0.52;;;0.40;;
82479;SDS011;72105;46.112;12.902;2024-01-06T02:46:44;0.35;;;0.32;;
82479;SDS011;72105;46.112;12.902;2024-01-06T02:49:10;1.98;;;0.45;;
82479;SDS011;72105;46.112;12.902;2024-01-06T02:51:36;0.20;;;0.20;;
82479;SDS011;72105;46.112;12.902;2024-01-06T02:54:02;0.30;;;0.30;;
82479;SDS011;72105;46.112;12.902;2024-01-06T02:56:29;0.30;;;0.30;;
82479;SDS011;72105;46.112;12.902;2024-01-06T02:58:55;0.30;;;0.30;;
82479;SDS011;72105;46.112;12.902;2024-01-06T03:01:21;0.60;;;0.17;;
82479;SDS011;72105;46.112;12.902;2024-01-06T03:03:47;1.52;;;0.28;;
82479;SDS011;72105;46.112;12.902;2024-01-06T03:06:13;0.20;;;0.20;;
82479;SDS011;72105;46.112;12.902;2024-01-06T03:08:39;0.35;;;0.20;;
82479;SDS011;72105;46.112;12.902;2024-01-06T03:11:06;0.10;;;0.10;;
82479;SDS011;72105;46.112;12.902;2024-01-06T03:13:32;0.10;;;0.05;;
82479;SDS011;72105;46.112;12.902;2024-01-06T03:16:01;0.30;;;0.20;;
82479;SDS011;72105;46.112;12.902;2024-01-06T03:18:27;1.65;;;0.20;;
82479;SDS011;72105;46.112;12.902;2024-01-06T03:20:53;0.68;;;0.43;;
82479;SDS011;72105;46.112;12.902;2024-01-06T03:23:19;1.27;;;0.85;;
82479;SDS011;72105;46.112;12.902;2024-01-06T03:25:45;2.35;;;1.15;;
82479;SDS011;72105;46.112;12.902;2024-01-06T03:28:11;1.20;;;1.00;;
82479;SDS011;72105;46.112;12.902;2024-01-06T03:30:37;2.30;;;1.02;;
82479;SDS011;72105;46.112;12.902;2024-01-06T03:33:03;1.23;;;0.70;;
82479;SDS011;72105;46.112;12.902;2024-01-06T03:35:29;3.30;;;1.27;;
82479;SDS011;72105;46.112;12.902;2024-01-06T03:37:55;3.88;;;1.58;;
82479;SDS011;72105;46.112;12.902;2024-01-06T03:40:21;10.00;;;2.95;;
82479;SDS011;72105;46.112;12.902;2024-01-06T03:42:48;10.13;;;3.08;;
82479;SDS011;72105;46.112;12.902;2024-01-06T03:45:14;8.55;;;2.72;;
82479;SDS011;72105;46.112;12.902;2024-01-06T03:47:40;6.60;;;2.53;;
82479;SDS011;72105;46.112;12.902;2024-01-06T03:50:06;2.00;;;1.45;;
82479;SDS011;72105;46.112;12.902;2024-01-06T03:52:32;0.40;;;0.30;;
82479;SDS011;72105;46.112;12.902;2024-01-06T03:54:58;0.10;;;0.10;;
82479;SDS011;72105;46.112;12.902;2024-01-06T03:57:25;0.20;;;0.20;;
82479;SDS011;72105;46.112;12.902;2024-01-06T03:59:51;0.10;;;0.10;;
82479;SDS011;72105;46.112;12.902;2024-01-06T04:02:17;0.40;;;0.28;;
82479;SDS011;72105;46.112;12.902;2024-01-06T04:04:43;0.40;;;0.32;;
82479;SDS011;72105;46.112;12.902;2024-01-06T04:07:09;0.35;;;0.30;;
82479;SDS011;72105;46.112;12.902;2024-01-06T04:09:35;0.25;;;0.20;;
82479;SDS011;72105;46.112;12.902;2024-01-06T04:12:01;0.77;;;0.30;;
82479;SDS011;72105;46.112;12.902;2024-01-06T04:14:27;0.25;;;0.25;;
82479;SDS011;72105;46.112;12.902;2024-01-06T04:16:53;0.47;;;0.40;;
82479;SDS011;72105;46.112;12.902;2024-01-06T04:21:47;0.30;;;0.30;;
82479;SDS011;72105;46.112;12.902;2024-01-06T04:24:13;0.68;;;0.52;;
82479;SDS011;72105;46.112;12.902;2024-01-06T04:26:39;0.25;;;0.22;;
82479;SDS011;72105;46.112;12.902;2024-01-06T04:29:06;0.30;;;0.30;;
82479;SDS011;72105;46.112;12.902;2024-01-06T04:31:32;0.20;;;0.20;;
82479;SDS011;72105;46.112;12.902;2024-01-06T04:33:58;0.30;;;0.30;;
82479;SDS011;72105;46.112;12.902;2024-01-06T04:36:24;0.22;;;0.22;;
82479;SDS011;72105;46.112;12.902;2024-01-06T04:38:50;0.30;;;0.30;;
82479;SDS011;72105;46.112;12.902;2024-01-06T04:41:16;0.40;;;0.40;;
82479;SDS011;72105;46.112;12.902;2024-01-06T04:43:42;1.40;;;0.30;;
82479;SDS011;72105;46.112;12.902;2024-01-06T04:46:08;0.47;;;0.30;;
82479;SDS011;72105;46.112;12.902;2024-01-06T04:48:34;0.30;;;0.30;;
82479;SDS011;72105;46.112;12.902;2024-01-06T04:51:00;0.75;;;0.35;;
82479;SDS011;72105;46.112;12.902;2024-01-06T04:53:28;0.63;;;0.43;;
82479;SDS011;72105;46.112;12.902;2024-01-06T04:55:54;0.20;;;0.20;;
82479;SDS011;72105;46.112;12.902;2024-01-06T04:58:20;0.38;;;0.28;;
82479;SDS011;72105;46.112;12.902;2024-01-06T05:00:46;0.65;;;0.50;;
82479;SDS011;72105;46.112;12.902;2024-01-06T05:03:13;0.73;;;0.40;;
82479;SDS011;72105;46.112;12.902;2024-01-06T05:05:39;0.60;;;0.50;;
82479;SDS011;72105;46.112;12.902;2024-01-06T05:08:05;0.32;;;0.32;;
82479;SDS011;72105;46.112;12.902;2024-01-06T05:10:31;0.40;;;0.40;;
82479;SDS011;72105;46.112;12.902;2024-01-06T05:12:57;1.15;;;0.40;;
82479;SDS011;72105;46.112;12.902;2024-01-06T05:15:24;0.52;;;0.50;;
82479;SDS011;72105;46.112;12.902;2024-01-06T05:17:50;0.20;;;0.20;;
82479;SDS011;72105;46.112;12.902;2024-01-06T05:20:16;0.30;;;0.30;;
82479;SDS011;72105;46.112;12.902;2024-01-06T05:22:42;0.40;;;0.40;;
82479;SDS011;72105;46.112;12.902;2024-01-06T05:25:08;0.32;;;0.28;;
82479;SDS011;72105;46.112;12.902;2024-01-06T05:27:34;0.20;;;0.17;;
82479;SDS011;72105;46.112;12.902;2024-01-06T05:30:00;0.35;;;0.30;;
82479;SDS011;72105;46.112;12.902;2024-01-06T05:32:27;0.13;;;0.13;;
82479;SDS011;72105;46.112;12.902;2024-01-06T05:34:53;0.45;;;0.35;;
82479;SDS011;72105;46.112;12.902;2024-01-06T05:37:19;0.40;;;0.40;;
82479;SDS011;72105;46.112;12.902;2024-01-06T05:39:45;0.30;;;0.30;;
82479;SDS011;72105;46.112;12.902;2024-01-06T05:42:11;0.22;;;0.22;;
82479;SDS011;72105;46.112;12.902;2024-01-06T05:44:40;0.95;;;0.47;;
82479;SDS011;72105;46.112;12.902;2024-01-06T05:47:06;1.00;;;0.60;;
82479;SDS011;72105;46.112;12.902;2024-01-06T05:49:33;1.48;;;0.70;;
82479;SDS011;72105;46.112;12.902;2024-01-06T05:51:59;0.77;;;0.35;;
82479;SDS011;72105;46.112;12.902;2024-01-06T05:54:25;0.55;;;0.45;;
82479;SDS011;72105;46.112;12.902;2024-01-06T05:56:52;0.80;;;0.35;;
82479;SDS011;72105;46.112;12.902;2024-01-06T05:59:18;1.27;;;0.82;;
82479;SDS011;72105;46.112;12.902;2024-01-06T06:01:44;0.60;;;0.60;;
82479;SDS011;72105;46.112;12.902;2024-01-06T06:04:11;0.30;;;0.30;;
82479;SDS011;72105;46.112;12.902;2024-01-06T06:06:37;0.50;;;0.50;;
82479;SDS011;72105;46.112;12.902;2024-01-06T06:09:03;0.57;;;0.32;;
82479;SDS011;72105;46.112;12.902;2024-01-06T06:11:33;1.08;;;0.20;;
82479;SDS011;72105;46.112;12.902;2024-01-06T06:13:59;0.28;;;0.28;;
82479;SDS011;72105;46.112;12.902;2024-01-06T06:16:28;0.40;;;0.40;;
82479;SDS011;72105;46.112;12.902;2024-01-06T06:18:54;0.40;;;0.32;;
82479;SDS011;72105;46.112;12.902;2024-01-06T06:21:20;0.68;;;0.60;;
82479;SDS011;72105;46.112;12.902;2024-01-06T06:23:47;1.58;;;0.80;;
82479;SDS011;72105;46.112;12.902;2024-01-06T06:26:13;0.65;;;0.45;;
82479;SDS011;72105;46.112;12.902;2024-01-06T06:28:39;0.30;;;0.30;;
82479;SDS011;72105;46.112;12.902;2024-01-06T06:31:05;0.50;;;0.50;;
82479;SDS011;72105;46.112;12.902;2024-01-06T06:33:31;0.40;;;0.40;;
82479;SDS011;72105;46.112;12.902;2024-01-06T06:35:58;3.85;;;0.60;;
82479;SDS011;72105;46.112;12.902;2024-01-06T06:38:27;0.40;;;0.38;;
82479;SDS011;72105;46.112;12.902;2024-01-06T06:40:54;0.60;;;0.50;;
82479;SDS011;72105;46.112;12.902;2024-01-06T06:43:21;0.35;;;0.32;;
82479;SDS011;72105;46.112;12.902;2024-01-06T06:45:47;0.60;;;0.40;;
82479;SDS011;72105;46.112;12.902;2024-01-06T06:48:13;1.58;;;0.95;;
82479;SDS011;72105;46.112;12.902;2024-01-06T06:50:39;1.00;;;0.80;;
82479;SDS011;72105;46.112;12.902;2024-01-06T06:53:09;0.77;;;0.60;;
82479;SDS011;72105;46.112;12.902;2024-01-06T06:55:35;0.85;;;0.85;;
82479;SDS011;72105;46.112;12.902;2024-01-06T06:58:02;0.75;;;0.65;;
82479;SDS011;72105;46.112;12.902;2024-01-06T07:00:28;1.75;;;0.55;;
82479;SDS011;72105;46.112;12.902;2024-01-06T07:02:54;0.98;;;0.68;;
82479;SDS011;72105;46.112;12.902;2024-01-06T07:05:20;2.38;;;1.42;;
82479;SDS011;72105;46.112;12.902;2024-01-06T07:07:46;2.47;;;1.30;;
82479;SDS011;72105;46.112;12.902;2024-01-06T07:10:13;2.65;;;1.38;;
82479;SDS011;72105;46.112;12.902;2024-01-06T07:12:39;1.33;;;0.98;;
82479;SDS011;72105;46.112;12.902;2024-01-06T07:15:05;1.83;;;1.30;;
82479;SDS011;72105;46.112;12.902;2024-01-06T07:17:32;0.90;;;0.80;;
82479;SDS011;72105;46.112;12.902;2024-01-06T07:19:58;0.85;;;0.75;;
82479;SDS011;72105;46.112;12.902;2024-01-06T07:22:25;1.40;;;0.90;;
82479;SDS011;72105;46.112;12.902;2024-01-06T07:24:51;0.60;;;0.60;;
82479;SDS011;72105;46.112;12.902;2024-01-06T07:27:20;1.60;;;1.17;;
82479;SDS011;72105;46.112;12.902;2024-01-06T07:29:46;0.95;;;0.70;;
82479;SDS011;72105;46.112;12.902;2024-01-06T07:32:12;1.23;;;0.88;;
82479;SDS011;72105;46.112;12.902;2024-01-06T07:34:39;1.60;;;1.15;;
82479;SDS011;72105;46.112;12.902;2024-01-06T07:37:05;1.17;;;0.93;;
82479;SDS011;72105;46.112;12.902;2024-01-06T07:39:31;1.30;;;0.98;;
82479;SDS011;72105;46.112;12.902;2024-01-06T07:41:58;1.67;;;1.00;;
82479;SDS011;72105;46.112;12.902;2024-01-06T07:44:24;0.85;;;0.70;;
82479;SDS011;72105;46.112;12.902;2024-01-06T07:46:50;1.30;;;0.70;;
82479;SDS011;72105;46.112;12.902;2024-01-06T07:49:17;1.00;;;0.70;;
82479;SDS011;72105;46.112;12.902;2024-01-06T07:51:43;0.65;;;0.65;;
82479;SDS011;72105;46.112;12.902;2024-01-06T07:54:09;1.00;;;0.90;;
82479;SDS011;72105;46.112;12.902;2024-01-06T07:56:36;1.15;;;0.95;;
82479;SDS011;72105;46.112;12.902;2024-01-06T07:59:03;0.50;;;0.50;;
82479;SDS011;72105;46.112;12.902;2024-01-06T08:01:29;0.93;;;0.90;;
82479;SDS011;72105;46.112;12.902;2024-01-06T08:03:55;0.52;;;0.52;;
82479;SDS011;72105;46.112;12.902;2024-01-06T08:06:21;0.70;;;0.60;;
82479;SDS011;72105;46.112;12.902;2024-01-06T08:08:47;1.40;;;1.00;;
82479;SDS011;72105;46.112;12.902;2024-01-06T08:11:13;1.58;;;0.98;;
82479;SDS011;72105;46.112;12.902;2024-01-06T08:13:40;1.20;;;1.10;;
82479;SDS011;72105;46.112;12.902;2024-01-06T08:16:06;1.00;;;0.90;;
82479;SDS011;72105;46.112;12.902;2024-01-06T08:18:32;3.30;;;1.92;;
82479;SDS011;72105;46.112;12.902;2024-01-06T08:20:58;1.88;;;1.50;;
82479;SDS011;72105;46.112;12.902;2024-01-06T08:23:24;1.75;;;1.05;;
82479;SDS011;72105;46.112;12.902;2024-01-06T08:25:51;1.55;;;1.00;;
82479;SDS011;72105;46.112;12.902;2024-01-06T08:28:17;1.95;;;1.02;;
82479;SDS011;72105;46.112;12.902;2024-01-06T08:30:44;1.25;;;0.90;;
82479;SDS011;72105;46.112;12.902;2024-01-06T08:33:10;2.70;;;1.02;;
82479;SDS011;72105;46.112;12.902;2024-01-06T08:35:36;1.48;;;1.00;;
82479;SDS011;72105;46.112;12.902;2024-01-06T08:38:08;1.60;;;1.20;;
82479;SDS011;72105;46.112;12.902;2024-01-06T08:40:34;2.05;;;1.13;;
82479;SDS011;72105;46.112;12.902;2024-01-06T08:43:01;2.38;;;1.42;;
82479;SDS011;72105;46.112;12.902;2024-01-06T08:45:27;2.28;;;1.52;;
82479;SDS011;72105;46.112;12.902;2024-01-06T08:47:53;2.67;;;2.10;;
82479;SDS011;72105;46.112;12.902;2024-01-06T08:50:19;4.05;;;1.52;;
82479;SDS011;72105;46.112;12.902;2024-01-06T08:52:45;4.03;;;2.53;;
82479;SDS011;72105;46.112;12.902;2024-01-06T08:55:12;2.75;;;2.20;;
82479;SDS011;72105;46.112;12.902;2024-01-06T08:57:38;2.33;;;1.90;;
82479;SDS011;72105;46.112;12.902;2024-01-06T09:00:04;0.80;;;0.57;;
82479;SDS011;72105;46.112;12.902;2024-01-06T09:02:30;3.03;;;2.00;;
82479;SDS011;72105;46.112;12.902;2024-01-06T09:04:56;6.40;;;3.50;;
82479;SDS011;72105;46.112;12.902;2024-01-06T09:07:22;8.10;;;3.47;;
82479;SDS011;72105;46.112;12.902;2024-01-06T09:09:48;5.57;;;2.63;;
82479;SDS011;72105;46.112;12.902;2024-01-06T09:12:16;4.57;;;2.80;;
82479;SDS011;72105;46.112;12.902;2024-01-06T09:14:42;4.50;;;1.88;;
82479;SDS011;72105;46.112;12.902;2024-01-06T09:17:08;4.30;;;2.42;;
82479;SDS011;72105;46.112;12.902;2024-01-06T09:19:34;2.72;;;2.00;;
82479;SDS011;72105;46.112;12.902;2024-01-06T09:22:00;2.67;;;1.50;;
82479;SDS011;72105;46.112;12.902;2024-01-06T09:24:26;2.03;;;1.50;;
82479;SDS011;72105;46.112;12.902;2024-01-06T09:26:52;4.80;;;2.88;;
82479;SDS011;72105;46.112;12.902;2024-01-06T09:29:18;2.78;;;2.13;;
82479;SDS011;72105;46.112;12.902;2024-01-06T09:31:45;4.93;;;2.95;;
82479;SDS011;72105;46.112;12.902;2024-01-06T09:34:11;4.35;;;3.60;;
82479;SDS011;72105;46.112;12.902;2024-01-06T09:36:37;4.10;;;1.92;;
82479;SDS011;72105;46.112;12.902;2024-01-06T09:39:04;5.15;;;3.58;;
82479;SDS011;72105;46.112;12.902;2024-01-06T09:41:30;4.00;;;3.33;;
82479;SDS011;72105;46.112;12.902;2024-01-06T09:43:57;5.35;;;3.75;;
82479;SDS011;72105;46.112;12.902;2024-01-06T09:46:27;4.32;;;2.92;;
82479;SDS011;72105;46.112;12.902;2024-01-06T09:48:54;3.28;;;2.08;;
82479;SDS011;72105;46.112;12.902;2024-01-06T09:51:21;1.85;;;1.60;;
82479;SDS011;72105;46.112;12.902;2024-01-06T09:54:00;4.38;;;3.22;;
82479;SDS011;72105;46.112;12.902;2024-01-06T09:56:27;3.28;;;2.25;;
82479;SDS011;72105;46.112;12.902;2024-01-06T09:58:53;3.05;;;2.67;;
82479;SDS011;72105;46.112;12.902;2024-01-06T10:01:20;2.78;;;2.33;;
82479;SDS011;72105;46.112;12.902;2024-01-06T10:03:46;2.70;;;2.00;;
82479;SDS011;72105;46.112;12.902;2024-01-06T10:06:15;2.55;;;2.25;;
82479;SDS011;72105;46.112;12.902;2024-01-06T10:08:42;1.80;;;1.42;;
82479;SDS011;72105;46.112;12.902;2024-01-06T10:11:08;2.35;;;1.60;;
82479;SDS011;72105;46.112;12.902;2024-01-06T10:13:35;3.15;;;1.95;;
82479;SDS011;72105;46.112;12.902;2024-01-06T10:16:05;2.90;;;1.90;;
82479;SDS011;72105;46.112;12.902;2024-01-06T10:18:31;3.67;;;2.40;;
82479;SDS011;72105;46.112;12.902;2024-01-06T10:20:57;2.47;;;1.95;;
82479;SDS011;72105;46.112;12.902;2024-01-06T10:23:25;3.28;;;2.58;;
82479;SDS011;72105;46.112;12.902;2024-01-06T10:25:55;3.33;;;3.00;;
82479;SDS011;72105;46.112;12.902;2024-01-06T10:28:21;3.92;;;3.53;;
82479;SDS011;72105;46.112;12.902;2024-01-06T10:30:49;1.90;;;1.40;;
82479;SDS011;72105;46.112;12.902;2024-01-06T10:33:15;2.70;;;1.85;;
82479;SDS011;72105;46.112;12.902;2024-01-06T10:35:41;3.28;;;2.45;;
82479;SDS011;72105;46.112;12.902;2024-01-06T10:38:08;2.03;;;1.80;;
82479;SDS011;72105;46.112;12.902;2024-01-06T10:40:34;3.33;;;2.30;;
82479;SDS011;72105;46.112;12.902;2024-01-06T10:43:00;2.20;;;2.00;;
82479;SDS011;72105;46.112;12.902;2024-01-06T10:45:27;3.22;;;2.42;;
82479;SDS011;72105;46.112;12.902;2024-01-06T10:47:55;3.40;;;2.47;;
82479;SDS011;72105;46.112;12.902;2024-01-06T10:50:21;4.30;;;3.55;;
82479;SDS011;72105;46.112;12.902;2024-01-06T10:52:47;4.63;;;3.00;;
82479;SDS011;72105;46.112;12.902;2024-01-06T10:55:15;2.30;;;1.80;;
82479;SDS011;72105;46.112;12.902;2024-01-06T10:57:45;3.35;;;2.60;;
82479;SDS011;72105;46.112;12.902;2024-01-06T11:00:12;2.00;;;1.90;;
82479;SDS011;72105;46.112;12.902;2024-01-06T11:02:39;3.03;;;2.10;;
82479;SDS011;72105;46.112;12.902;2024-01-06T11:05:05;2.33;;;1.98;;
82479;SDS011;72105;46.112;12.902;2024-01-06T11:07:35;5.50;;;4.10;;
82479;SDS011;72105;46.112;12.902;2024-01-06T11:10:03;2.33;;;1.83;;
82479;SDS011;72105;46.112;12.902;2024-01-06T11:12:30;2.53;;;1.70;;
82479;SDS011;72105;46.112;12.902;2024-01-06T11:14:57;3.28;;;2.95;;
82479;SDS011;72105;46.112;12.902;2024-01-06T11:20:07;3.50;;;2.30;;
82479;SDS011;72105;46.112;12.902;2024-01-06T11:22:34;3.25;;;2.47;;
82479;SDS011;72105;46.112;12.902;2024-01-06T11:25:05;2.85;;;2.20;;
82479;SDS011;72105;46.112;12.902;2024-01-06T11:27:32;2.55;;;2.35;;
82479;SDS011;72105;46.112;12.902;2024-01-06T11:30:00;2.67;;;1.92;;
82479;SDS011;72105;46.112;12.902;2024-01-06T11:32:31;3.33;;;3.03;;
82479;SDS011;72105;46.112;12.902;2024-01-06T11:35:05;3.83;;;2.40;;
82479;SDS011;72105;46.112;12.902;2024-01-06T11:37:39;3.45;;;2.55;;
82479;SDS011;72105;46.112;12.902;2024-01-06T11:43:11;1.70;;;1.60;;
82479;SDS011;72105;46.112;12.902;2024-01-06T11:45:38;3.58;;;2.30;;
82479;SDS011;72105;46.112;12.902;2024-01-06T11:48:07;3.00;;;2.15;;
82479;SDS011;72105;46.112;12.902;2024-01-06T11:50:37;2.80;;;1.48;;
82479;SDS011;72105;46.112;12.902;2024-01-06T11:53:04;2.20;;;1.80;;
82479;SDS011;72105;46.112;12.902;2024-01-06T11:55:30;4.25;;;2.00;;
82479;SDS011;72105;46.112;12.902;2024-01-06T11:57:57;4.82;;;2.80;;
82479;SDS011;72105;46.112;12.902;2024-01-06T12:00:27;3.58;;;2.28;;
82479;SDS011;72105;46.112;12.902;2024-01-06T12:02:56;7.20;;;6.18;;
82479;SDS011;72105;46.112;12.902;2024-01-06T12:05:23;11.27;;;8.02;;
82479;SDS011;72105;46.112;12.902;2024-01-06T12:07:58;13.70;;;10.48;;
82479;SDS011;72105;46.112;12.902;2024-01-06T12:10:25;17.52;;;10.82;;
82479;SDS011;72105;46.112;12.902;2024-01-06T12:13:01;7.22;;;5.30;;
82479;SDS011;72105;46.112;12.902;2024-01-06T12:15:28;3.67;;;2.03;;
82479;SDS011;72105;46.112;12.902;2024-01-06T12:17:54;8.40;;;5.20;;
82479;SDS011;72105;46.112;12.902;2024-01-06T12:20:21;3.10;;;2.42;;
82479;SDS011;72105;46.112;12.902;2024-01-06T12:22:48;1.83;;;1.65;;
82479;SDS011;72105;46.112;12.902;2024-01-06T12:25:14;4.18;;;3.45;;
82479;SDS011;72105;46.112;12.902;2024-01-06T12:27:44;4.30;;;2.05;;
82479;SDS011;72105;46.112;12.902;2024-01-06T12:30:14;3.50;;;3.20;;
82479;SDS011;72105;46.112;12.902;2024-01-06T12:32:44;3.25;;;2.05;;
82479;SDS011;72105;46.112;12.902;2024-01-06T12:35:11;1.75;;;1.40;;
82479;SDS011;72105;46.112;12.902;2024-01-06T12:37:37;2.45;;;1.85;;
82479;SDS011;72105;46.112;12.902;2024-01-06T12:40:04;2.00;;;1.40;;
82479;SDS011;72105;46.112;12.902;2024-01-06T12:42:30;2.10;;;1.65;;
82479;SDS011;72105;46.112;12.902;2024-01-06T12:44:56;6.82;;;4.40;;
82479;SDS011;72105;46.112;12.902;2024-01-06T12:47:22;5.90;;;3.65;;
82479;SDS011;72105;46.112;12.902;2024-01-06T12:49:49;3.05;;;2.75;;
82479;SDS011;72105;46.112;12.902;2024-01-06T12:52:15;3.03;;;2.08;;
82479;SDS011;72105;46.112;12.902;2024-01-06T12:54:41;4.28;;;2.42;;
82479;SDS011;72105;46.112;12.902;2024-01-06T12:57:08;6.13;;;3.30;;
82479;SDS011;72105;46.112;12.902;2024-01-06T12:59:34;4.97;;;3.22;;
82479;SDS011;72105;46.112;12.902;2024-01-06T13:02:00;4.93;;;2.83;;
82479;SDS011;72105;46.112;12.902;2024-01-06T13:04:27;3.53;;;2.00;;
82479;SDS011;72105;46.112;12.902;2024-01-06T13:06:53;3.67;;;2.83;;
82479;SDS011;72105;46.112;12.902;2024-01-06T13:09:19;3.08;;;2.25;;
82479;SDS011;72105;46.112;12.902;2024-01-06T13:11:48;2.05;;;1.08;;
82479;SDS011;72105;46.112;12.902;2024-01-06T13:14:16;4.95;;;2.00;;
82479;SDS011;72105;46.112;12.902;2024-01-06T13:16:42;5.72;;;2.95;;
82479;SDS011;72105;46.112;12.902;2024-01-06T13:19:09;5.47;;;3.30;;
82479;SDS011;72105;46.112;12.902;2024-01-06T13:21:35;4.82;;;2.28;;
82479;SDS011;72105;46.112;12.902;2024-01-06T13:24:04;1.95;;;1.75;;
82479;SDS011;72105;46.112;12.902;2024-01-06T13:26:30;1.67;;;1.40;;
82479;SDS011;72105;46.112;12.902;2024-01-06T13:28:56;1.67;;;1.48;;
82479;SDS011;72105;46.112;12.902;2024-01-06T13:31:23;1.55;;;1.13;;
82479;SDS011;72105;46.112;12.902;2024-01-06T13:33:49;1.33;;;1.00;;
82479;SDS011;72105;46.112;12.902;2024-01-06T13:36:17;1.52;;;1.05;;
82479;SDS011;72105;46.112;12.902;2024-01-06T13:38:43;2.20;;;2.00;;
82479;SDS011;72105;46.112;12.902;2024-01-06T13:41:10;1.40;;;1.25;;
82479;SDS011;72105;46.112;12.902;2024-01-06T13:43:36;1.55;;;0.90;;
82479;SDS011;72105;46.112;12.902;2024-01-06T13:46:02;0.95;;;0.88;;
82479;SDS011;72105;46.112;12.902;2024-01-06T13:48:28;1.05;;;0.77;;
82479;SDS011;72105;46.112;12.902;2024-01-06T13:50:54;2.03;;;1.20;;
82479;SDS011;72105;46.112;12.902;2024-01-06T13:53:22;2.13;;;1.42;;
82479;SDS011;72105;46.112;12.902;2024-01-06T13:55:48;5.82;;;3.22;;
82479;SDS011;72105;46.112;12.902;2024-01-06T13:58:14;3.60;;;2.60;;
82479;SDS011;72105;46.112;12.902;2024-01-06T14:00:40;3.38;;;2.50;;
82479;SDS011;72105;46.112;12.902;2024-01-06T14:03:07;4.60;;;2.95;;
82479;SDS011;72105;46.112;12.902;2024-01-06T14:05:33;3.00;;;2.25;;
82479;SDS011;72105;46.112;12.902;2024-01-06T14:08:00;4.05;;;2.45;;
82479;SDS011;72105;46.112;12.902;2024-01-06T14:10:26;2.40;;;1.95;;
82479;SDS011;72105;46.112;12.902;2024-01-06T14:12:53;2.45;;;2.13;;
82479;SDS011;72105;46.112;12.902;2024-01-06T14:15:20;3.45;;;2.72;;
82479;SDS011;72105;46.112;12.902;2024-01-06T14:17:46;5.25;;;2.55;;
82479;SDS011;72105;46.112;12.902;2024-01-06T14:20:16;4.40;;;2.53;;
82479;SDS011;72105;46.112;12.902;2024-01-06T14:22:45;6.40;;;5.10;;
82479;SDS011;72105;46.112;12.902;2024-01-06T14:25:15;4.97;;;3.55;;
82479;SDS011;72105;46.112;12.902;2024-01-06T14:27:44;7.07;;;4.80;;
82479;SDS011;72105;46.112;12.902;2024-01-06T14:30:11;5.50;;;4.13;;
82479;SDS011;72105;46.112;12.902;2024-01-06T14:32:37;7.30;;;4.82;;
82479;SDS011;72105;46.112;12.902;2024-01-06T14:35:04;8.75;;;5.15;;
82479;SDS011;72105;46.112;12.902;2024-01-06T14:37:36;6.20;;;4.28;;